Time;durP1;ratioP1;P1;durP2;ratioP2;P2;SDS_P1;SDS_P2;PMS_P1;PMS_P2;Temp;Humidity;BMP_temperature;BMP_pressure;BME280_temperature;BME280_humidity;BME280_pressure;Samples;Min_cycle;Max_cycle;Signal;HPM_P1;HPM_P2
2022/10/12 00:01:11;;;;;;;25.00;17.37;;;14.40;1.00;;;;;;5049868;28;20914;-65
2022/10/12 00:03:37;;;;;;;19.80;17.70;;;14.20;1.00;;;;;;5052104;28;20318;-65
2022/10/12 00:06:22;;;;;;;28.40;17.90;;;14.20;1.00;;;;;;5052112;28;20171;-65
2022/10/12 00:08:50;;;;;;;23.27;18.43;;;14.10;1.00;;;;;;5052774;28;20459;-64
2022/10/12 00:11:19;;;;;;;19.27;17.27;;;14.10;1.00;;;;;;5051984;28;20459;-64
2022/10/12 00:13:46;;;;;;;26.03;17.10;;;14.20;1.00;;;;;;5052314;28;20424;-64
2022/10/12 00:16:12;;;;;;;29.23;19.27;;;14.20;1.00;;;;;;5051658;28;20413;-64
2022/10/12 00:18:38;;;;;;;22.60;17.50;;;14.30;1.00;;;;;;5052281;28;20461;-64
2022/10/12 00:21:24;;;;;;;27.27;17.03;;;14.30;1.00;;;;;;5051201;28;20544;-65
2022/10/12 00:23:50;;;;;;;24.77;17.47;;;14.20;1.00;;;;;;5052220;28;20508;-65
2022/10/12 00:26:18;;;;;;;26.90;18.60;;;14.20;1.00;;;;;;5052284;28;20424;-65
2022/10/12 00:28:45;;;;;;;23.70;18.33;;;14.10;1.00;;;;;;5052000;28;20417;-64
2022/10/12 00:31:14;;;;;;;24.00;18.83;;;14.10;1.00;;;;;;5050948;28;20851;-65
2022/10/12 00:33:40;;;;;;;22.93;16.97;;;14.10;1.00;;;;;;5051642;28;20436;-65
2022/10/12 00:36:18;;;;;;;23.23;18.87;;;14.10;1.00;;;;;;5052302;28;20409;-65
2022/10/12 00:38:44;;;;;;;23.20;18.67;;;14.10;1.00;;;;;;5051783;28;20500;-65
2022/10/12 00:41:11;;;;;;;25.73;18.60;;;14.10;1.00;;;;;;5050930;28;20394;-65
2022/10/12 00:43:40;;;;;;;24.47;19.07;;;14.10;1.00;;;;;;5052112;28;20917;-65
2022/10/12 00:46:17;;;;;;;23.17;18.10;;;14.10;1.00;;;;;;5051211;28;20420;-65
2022/10/12 00:48:46;;;;;;;23.40;16.87;;;14.00;1.00;;;;;;5051677;28;20504;-66
2022/10/12 00:51:13;;;;;;;24.70;17.63;;;13.90;1.00;;;;;;5049504;28;20517;-66
2022/10/12 00:53:48;;;;;;;26.17;17.20;;;13.90;1.00;;;;;;5051414;28;20503;-66
2022/10/12 00:56:21;;;;;;;25.90;18.80;;;13.90;1.00;;;;;;5051412;28;20405;-64
2022/10/12 00:58:48;;;;;;;26.50;18.17;;;13.80;1.00;;;;;;5051671;28;20496;-65
2022/10/12 01:01:15;;;;;;;27.07;19.33;;;13.80;1.00;;;;;;5050148;28;20504;-66
2022/10/12 01:03:41;;;;;;;23.37;18.70;;;13.80;1.00;;;;;;5051108;28;20429;-64
2022/10/12 01:06:08;;;;;;;23.33;18.97;;;13.80;1.00;;;;;;5051267;28;20431;-66
2022/10/12 01:08:34;;;;;;;25.90;19.63;;;13.80;1.00;;;;;;5051560;28;20497;-65
2022/10/12 01:11:00;;;;;;;26.67;19.30;;;13.80;1.00;;;;;;5050408;28;20413;-66
2022/10/12 01:13:26;;;;;;;22.30;17.90;;;13.90;1.00;;;;;;5050129;28;20449;-65
2022/10/12 01:16:15;;;;;;;25.23;19.43;;;14.00;1.00;;;;;;5050500;28;20186;-65
2022/10/12 01:19:12;;;;;;;23.53;18.63;;;14.10;1.00;;;;;;5050575;28;20805;-65
2022/10/12 01:21:47;;;;;;;20.10;17.07;;;14.10;1.00;;;;;;5050190;28;20409;-65
2022/10/12 01:24:40;;;;;;;26.73;18.30;;;14.10;1.00;;;;;;5050981;28;20424;-65
2022/10/12 01:27:24;;;;;;;23.63;19.30;;;14.10;1.00;;;;;;5051009;28;20406;-65
2022/10/12 01:30:14;;;;;;;23.27;19.63;;;14.10;1.00;;;;;;5050441;28;20397;-65
2022/10/12 01:33:05;;;;;;;26.23;20.17;;;14.00;1.00;;;;;;5036302;28;20438;-65
2022/10/12 01:35:36;;;;;;;23.40;18.97;;;14.00;1.00;;;;;;5050559;28;20413;-65
2022/10/12 01:38:23;;;;;;;28.73;19.40;;;14.10;1.00;;;;;;5050896;28;20460;-65
2022/10/12 01:40:53;;;;;;;26.80;19.47;;;14.00;1.00;;;;;;5050134;28;20814;-65
2022/10/12 01:43:22;;;;;;;22.07;18.10;;;14.00;1.00;;;;;;5050514;28;20429;-65
2022/10/12 01:45:48;;;;;;;29.47;17.83;;;13.90;1.00;;;;;;5049932;28;20410;-65
2022/10/12 01:48:15;;;;;;;19.87;17.80;;;13.80;1.00;;;;;;5050208;28;20448;-65
2022/10/12 01:50:48;;;;;;;20.43;16.80;;;13.80;1.00;;;;;;5048523;28;20505;-65
2022/10/12 01:53:34;;;;;;;31.40;17.63;;;13.80;1.00;;;;;;5050925;28;20461;-65
2022/10/12 01:56:19;;;;;;;30.80;18.60;;;13.80;1.00;;;;;;5049917;28;20417;-65
2022/10/12 01:59:22;;;;;;;22.50;17.50;;;13.80;1.00;;;;;;5050103;28;20965;-65
2022/10/12 02:01:56;;;;;;;22.90;18.00;;;13.80;1.00;;;;;;5010970;28;20452;-65
2022/10/12 02:05:05;;;;;;;26.90;18.60;;;13.80;1.00;;;;;;5050541;28;20498;-65
2022/10/12 02:07:52;;;;;;;22.90;19.30;;;13.70;1.00;;;;;;5019556;28;20828;-64
2022/10/12 02:10:42;;;;;;;25.57;18.33;;;13.60;1.00;;;;;;5049977;28;20416;-65
2022/10/12 02:13:12;;;;;;;25.33;19.17;;;13.60;1.00;;;;;;5049680;28;20517;-65
2022/10/12 02:15:41;;;;;;;22.87;17.80;;;13.70;1.00;;;;;;5049558;28;20432;-65
2022/10/12 02:18:10;;;;;;;24.37;18.90;;;13.60;1.00;;;;;;5049995;28;20595;-65
2022/10/12 02:20:38;;;;;;;25.00;20.40;;;13.70;1.00;;;;;;5049293;28;20428;-65
2022/10/12 02:23:04;;;;;;;24.37;18.37;;;13.70;1.00;;;;;;5049658;28;20430;-65
2022/10/12 02:25:31;;;;;;;25.77;18.40;;;13.70;1.00;;;;;;5049445;28;20409;-64
2022/10/12 02:28:10;;;;;;;27.33;20.80;;;13.70;1.00;;;;;;5049585;28;20163;-65
2022/10/12 02:31:10;;;;;;;29.53;19.43;;;13.70;1.00;;;;;;5048500;28;20421;-65
2022/10/12 02:33:42;;;;;;;34.70;19.93;;;13.60;1.00;;;;;;5031645;28;20481;-65
2022/10/12 02:36:33;;;;;;;27.00;20.77;;;13.50;1.00;;;;;;5050150;28;20428;-66
2022/10/12 02:39:11;;;;;;;25.20;20.60;;;13.60;1.00;;;;;;5049564;28;20448;-66
2022/10/12 02:41:48;;;;;;;25.73;20.43;;;13.70;1.00;;;;;;5048810;28;20393;-66
2022/10/12 02:44:19;;;;;;;26.27;20.20;;;13.70;1.00;;;;;;5049519;28;20475;-66
2022/10/12 02:46:48;;;;;;;26.77;19.17;;;13.70;1.00;;;;;;5048846;28;20480;-66
2022/10/12 02:49:16;;;;;;;30.50;21.60;;;13.70;1.00;;;;;;5049147;28;20406;-66
2022/10/12 02:51:44;;;;;;;24.57;20.80;;;13.70;1.00;;;;;;5047410;28;20416;-66
2022/10/12 02:54:11;;;;;;;32.43;22.03;;;13.70;1.00;;;;;;5049751;28;20999;-65
2022/10/12 02:56:44;;;;;;;27.57;21.27;;;13.70;1.00;;;;;;5049349;28;20427;-65
2022/10/12 02:59:11;;;;;;;26.90;21.50;;;13.80;1.00;;;;;;5049185;28;20417;-64
2022/10/12 03:01:37;;;;;;;27.57;22.13;;;13.90;1.00;;;;;;5048093;28;20414;-64
2022/10/12 03:04:03;;;;;;;26.77;19.97;;;13.90;1.00;;;;;;5049847;28;20929;-65
2022/10/12 03:06:29;;;;;;;35.93;21.30;;;14.00;1.00;;;;;;5048861;28;20489;-65
2022/10/12 03:08:56;;;;;;;28.80;22.40;;;14.00;1.00;;;;;;5049327;28;20171;-65
2022/10/12 03:11:22;;;;;;;29.10;22.03;;;14.00;1.00;;;;;;5048411;28;20183;-65
2022/10/12 03:13:51;;;;;;;35.90;24.90;;;14.00;1.00;;;;;;5049417;28;20437;-65
2022/10/12 03:16:17;;;;;;;28.00;21.20;;;14.10;1.00;;;;;;5048730;28;20409;-64
2022/10/12 03:18:42;;;;;;;28.80;22.20;;;14.00;1.00;;;;;;5049274;28;20476;-65
2022/10/12 03:21:09;;;;;;;28.37;22.50;;;13.90;1.00;;;;;;5048561;28;20174;-65
2022/10/12 03:23:35;;;;;;;27.23;22.17;;;13.80;1.00;;;;;;5049021;28;20208;-64
2022/10/12 03:26:01;;;;;;;33.73;23.63;;;13.80;1.00;;;;;;5049233;28;20413;-65
2022/10/12 03:28:27;;;;;;;28.30;19.97;;;13.80;1.00;;;;;;5049219;28;20413;-65
2022/10/12 03:30:53;;;;;;;34.77;25.13;;;13.60;1.00;;;;;;5048284;28;20178;-65
2022/10/12 03:33:19;;;;;;;38.23;22.47;;;13.60;1.00;;;;;;5049171;28;20707;-65
2022/10/12 03:35:45;;;;;;;35.17;24.67;;;13.50;1.00;;;;;;5050424;28;20175;-65
2022/10/12 03:38:12;;;;;;;29.47;22.20;;;13.40;1.00;;;;;;5053349;28;20209;-65
2022/10/12 03:40:38;;;;;;;30.77;22.60;;;13.40;1.00;;;;;;5052356;28;20413;-65
2022/10/12 03:43:04;;;;;;;31.63;23.80;;;13.50;1.00;;;;;;5053469;28;20428;-66
2022/10/12 03:45:29;;;;;;;31.57;24.13;;;13.60;1.00;;;;;;5052263;28;20261;-65
2022/10/12 03:47:55;;;;;;;52.47;22.80;;;13.70;1.00;;;;;;5052876;28;20624;-66
2022/10/12 03:50:21;;;;;;;29.90;22.50;;;13.70;1.00;;;;;;5051056;28;20183;-65
2022/10/12 03:52:47;;;;;;;32.87;23.43;;;13.70;1.00;;;;;;5052752;28;20222;-66
2022/10/12 03:55:13;;;;;;;32.23;24.53;;;13.60;1.00;;;;;;5052385;28;20486;-66
2022/10/12 03:57:39;;;;;;;38.17;24.40;;;13.60;1.00;;;;;;5052305;28;20563;-65
2022/10/12 04:00:06;;;;;;;37.50;24.50;;;13.70;1.00;;;;;;5051844;28;20214;-65
2022/10/12 04:02:31;;;;;;;26.63;21.70;;;13.70;1.00;;;;;;5051880;28;20414;-66
2022/10/12 04:04:57;;;;;;;40.00;25.30;;;13.70;1.00;;;;;;5052588;28;20408;-65
2022/10/12 04:07:23;;;;;;;33.80;22.50;;;13.70;1.00;;;;;;5052384;28;20202;-66
2022/10/12 04:09:49;;;;;;;35.20;23.20;;;13.60;1.00;;;;;;5049710;28;20605;-65
2022/10/12 04:12:15;;;;;;;33.57;22.73;;;13.60;1.00;;;;;;5041666;28;20256;-65
2022/10/12 04:14:40;;;;;;;30.83;22.80;;;13.60;1.00;;;;;;5043277;28;20470;-65
2022/10/12 04:17:06;;;;;;;36.37;24.57;;;13.60;1.00;;;;;;5041441;28;20281;-66
2022/10/12 04:19:32;;;;;;;35.97;23.97;;;13.60;1.00;;;;;;5051709;28;20163;-66
2022/10/12 04:21:57;;;;;;;38.87;27.47;;;13.60;1.00;;;;;;5049834;28;20175;-66
2022/10/12 04:24:23;;;;;;;40.90;24.77;;;13.60;1.00;;;;;;5051997;28;20544;-66
2022/10/12 04:26:48;;;;;;;33.30;24.17;;;13.60;1.00;;;;;;5051806;28;20175;-65
2022/10/12 04:29:14;;;;;;;32.73;23.23;;;13.60;1.00;;;;;;5052051;28;20178;-66
2022/10/12 04:31:40;;;;;;;31.93;23.30;;;13.60;1.00;;;;;;5051117;28;20179;-65
2022/10/12 04:34:06;;;;;;;38.07;27.40;;;13.60;1.00;;;;;;5052303;28;20563;-65
2022/10/12 04:36:32;;;;;;;39.03;24.07;;;13.70;1.00;;;;;;5051400;28;20171;-66
2022/10/12 04:38:57;;;;;;;33.90;23.77;;;13.70;1.00;;;;;;5051406;28;20282;-64
2022/10/12 04:41:23;;;;;;;34.97;23.97;;;13.70;1.00;;;;;;5049061;28;20268;-66
2022/10/12 04:43:51;;;;;;;33.23;24.30;;;13.60;1.00;;;;;;5049249;28;20187;-66
2022/10/12 04:46:16;;;;;;;33.40;24.10;;;13.50;1.00;;;;;;5048933;28;20171;-65
2022/10/12 04:48:42;;;;;;;32.97;24.80;;;13.40;1.00;;;;;;5049930;28;20755;-65
2022/10/12 04:51:08;;;;;;;34.70;25.40;;;13.40;1.00;;;;;;5047292;28;20167;-65
2022/10/12 04:53:34;;;;;;;34.97;27.43;;;13.10;1.00;;;;;;5049447;28;20207;-64
2022/10/12 04:56:04;;;;;;;33.90;25.67;;;13.20;1.00;;;;;;5042095;28;20437;-63
2022/10/12 04:58:30;;;;;;;35.23;27.30;;;13.20;1.00;;;;;;5031123;28;20287;-64
2022/10/12 05:00:56;;;;;;;34.40;24.77;;;13.30;1.00;;;;;;5038673;28;20789;-64
2022/10/12 05:03:22;;;;;;;41.30;25.13;;;13.30;1.00;;;;;;5045781;28;20434;-66
2022/10/12 05:05:48;;;;;;;39.00;25.77;;;13.30;1.00;;;;;;5043419;28;20564;-65
2022/10/12 05:08:14;;;;;;;31.37;24.40;;;13.30;1.00;;;;;;5034420;28;20434;-63
2022/10/12 05:10:40;;;;;;;30.70;24.70;;;13.40;1.00;;;;;;5042852;28;20251;-64
2022/10/12 05:13:06;;;;;;;37.13;25.20;;;13.40;1.00;;;;;;5035565;28;20195;-65
2022/10/12 05:15:31;;;;;;;35.17;24.70;;;13.40;1.00;;;;;;5036837;28;20677;-65
2022/10/12 05:17:57;;;;;;;39.20;24.13;;;13.50;1.00;;;;;;5040882;28;20457;-66
2022/10/12 05:20:23;;;;;;;43.87;26.60;;;13.50;1.00;;;;;;5040301;28;20599;-65
2022/10/12 05:22:48;;;;;;;38.20;26.30;;;13.50;1.00;;;;;;5043874;28;20198;-65
2022/10/12 05:25:14;;;;;;;52.30;25.77;;;13.60;1.00;;;;;;5018813;28;20254;-65
2022/10/12 05:27:40;;;;;;;44.87;27.23;;;13.60;1.00;;;;;;5034769;28;20203;-65
2022/10/12 05:30:07;;;;;;;36.10;27.13;;;13.50;1.00;;;;;;5030243;28;20411;-65
2022/10/12 05:32:33;;;;;;;36.83;25.43;;;13.60;1.00;;;;;;5028024;28;20425;-65
2022/10/12 05:34:59;;;;;;;35.80;25.00;;;13.70;1.00;;;;;;5043774;28;20501;-65
2022/10/12 05:37:24;;;;;;;47.90;27.70;;;13.60;1.00;;;;;;5048061;28;20536;-65
2022/10/12 05:39:50;;;;;;;38.50;25.30;;;13.60;1.00;;;;;;5048034;28;20258;-64
2022/10/12 05:42:16;;;;;;;37.77;25.33;;;13.70;1.00;;;;;;5048188;28;20174;-64
2022/10/12 05:44:42;;;;;;;34.07;24.87;;;13.60;1.00;;;;;;5048139;28;20839;-64
2022/10/12 05:47:08;;;;;;;40.03;26.20;;;13.60;1.00;;;;;;5032819;28;20409;-64
2022/10/12 05:49:34;;;;;;;34.47;26.33;;;13.60;1.00;;;;;;5035795;28;20253;-65
2022/10/12 05:52:00;;;;;;;37.23;25.00;;;13.60;1.00;;;;;;5039363;28;20187;-64
2022/10/12 05:54:25;;;;;;;33.23;25.90;;;13.60;1.00;;;;;;5036008;28;20585;-64
2022/10/12 05:56:51;;;;;;;41.40;25.67;;;13.50;1.00;;;;;;5037176;28;20175;-64
2022/10/12 05:59:17;;;;;;;41.37;27.60;;;13.60;1.00;;;;;;5046311;28;20259;-64
2022/10/12 06:01:42;;;;;;;47.00;26.17;;;13.70;1.00;;;;;;5038339;28;20182;-66
2022/10/12 06:04:08;;;;;;;43.03;27.30;;;13.60;1.00;;;;;;5035613;28;20190;-65
2022/10/12 06:06:34;;;;;;;78.07;28.90;;;13.70;1.00;;;;;;5033045;28;20655;-66
2022/10/12 06:08:59;;;;;;;57.67;27.83;;;13.70;1.00;;;;;;5040834;28;20654;-65
2022/10/12 06:11:25;;;;;;;41.63;28.43;;;13.80;1.00;;;;;;5034046;28;20202;-65
2022/10/12 06:13:53;;;;;;;39.17;27.57;;;13.80;1.00;;;;;;5037124;28;20209;-65
2022/10/12 06:16:18;;;;;;;34.20;25.63;;;13.90;1.00;;;;;;5036033;28;20175;-64
2022/10/12 06:18:44;;;;;;;31.10;26.60;;;13.80;1.00;;;;;;5042786;28;20465;-66
2022/10/12 06:21:10;;;;;;;32.30;24.40;;;13.80;1.00;;;;;;5034822;28;20595;-66
2022/10/12 06:23:35;;;;;;;55.13;27.30;;;13.80;1.00;;;;;;5036160;28;20594;-66
2022/10/12 06:26:01;;;;;;;35.13;26.33;;;13.80;1.00;;;;;;5037048;28;20278;-66
2022/10/12 06:28:27;;;;;;;46.50;27.00;;;13.80;1.00;;;;;;5041845;28;20216;-65
2022/10/12 06:30:54;;;;;;;45.60;26.30;;;13.80;1.00;;;;;;5034519;28;20179;-66
2022/10/12 06:33:20;;;;;;;57.53;29.17;;;13.90;1.00;;;;;;5043314;28;20261;-66
2022/10/12 06:35:45;;;;;;;104.90;33.23;;;13.90;1.00;;;;;;5035642;28;20543;-65
2022/10/12 06:38:11;;;;;;;37.87;28.27;;;13.90;1.00;;;;;;5041418;28;20288;-65
2022/10/12 06:40:37;;;;;;;35.23;26.10;;;13.90;1.00;;;;;;5037857;28;20171;-64
2022/10/12 06:43:02;;;;;;;33.27;25.30;;;13.90;1.00;;;;;;5040773;28;20183;-64
2022/10/12 06:45:29;;;;;;;43.27;29.27;;;13.80;1.00;;;;;;5048960;28;20159;-64
2022/10/12 06:47:55;;;;;;;33.97;27.53;;;13.80;1.00;;;;;;5049464;28;20197;-64
2022/10/12 06:50:21;;;;;;;38.23;28.70;;;13.80;1.00;;;;;;5048574;28;20406;-64
2022/10/12 06:52:47;;;;;;;40.87;27.00;;;13.90;1.00;;;;;;5048755;28;20452;-64
2022/10/12 06:55:13;;;;;;;41.00;26.57;;;14.00;1.00;;;;;;5048482;28;20193;-64
2022/10/12 06:57:38;;;;;;;37.67;26.20;;;14.00;1.00;;;;;;5048314;28;20191;-64
2022/10/12 07:00:06;;;;;;;38.50;25.47;;;13.90;1.00;;;;;;5048937;28;20270;-65
2022/10/12 07:02:32;;;;;;;37.27;25.87;;;14.00;1.00;;;;;;5048943;28;20170;-64
2022/10/12 07:04:58;;;;;;;44.63;26.77;;;13.90;1.00;;;;;;5049171;28;20437;-65
2022/10/12 07:07:24;;;;;;;34.70;25.80;;;13.90;1.00;;;;;;5049368;28;20429;-64
2022/10/12 07:09:51;;;;;;;34.20;25.87;;;13.80;1.00;;;;;;5047945;28;20659;-65
2022/10/12 07:12:17;;;;;;;34.10;26.40;;;13.70;1.00;;;;;;5048302;28;20174;-65
2022/10/12 07:14:42;;;;;;;34.37;24.07;;;13.80;1.00;;;;;;5047945;28;20433;-65
2022/10/12 07:17:08;;;;;;;38.20;25.80;;;13.90;1.00;;;;;;5048112;28;20719;-65
2022/10/12 07:19:34;;;;;;;35.23;23.97;;;13.90;1.00;;;;;;5048121;28;20171;-65
2022/10/12 07:22:00;;;;;;;35.33;25.43;;;13.90;1.00;;;;;;5047630;28;20167;-65
2022/10/12 07:24:34;;;;;;;34.83;24.30;;;14.00;1.00;;;;;;5047850;28;20187;-66
2022/10/12 07:27:04;;;;;;;36.67;26.30;;;14.20;1.00;;;;;;5048468;28;20401;-65
2022/10/12 07:29:31;;;;;;;31.43;25.70;;;14.20;1.00;;;;;;5048158;28;20501;-66
2022/10/12 07:31:57;;;;;;;38.20;25.27;;;14.20;1.00;;;;;;5047374;28;20421;-65
2022/10/12 07:34:24;;;;;;;34.80;26.13;;;14.10;1.00;;;;;;5048241;28;20457;-66
2022/10/12 07:36:50;;;;;;;36.70;27.40;;;14.10;1.00;;;;;;5047918;28;20397;-65
2022/10/12 07:39:15;;;;;;;38.23;28.83;;;14.10;1.00;;;;;;5047894;28;20942;-65
2022/10/12 07:41:41;;;;;;;42.30;27.67;;;14.10;1.00;;;;;;5047463;28;20305;-65
2022/10/12 07:44:07;;;;;;;45.07;27.20;;;14.00;1.00;;;;;;5047935;28;20274;-66
2022/10/12 07:46:33;;;;;;;37.17;28.77;;;14.00;1.00;;;;;;5047526;28;20615;-66
2022/10/12 07:48:59;;;;;;;44.33;30.93;;;13.90;1.00;;;;;;5046856;28;20171;-66
2022/10/12 07:51:24;;;;;;;40.17;29.67;;;14.00;1.00;;;;;;5047242;28;20412;-65
2022/10/12 07:53:50;;;;;;;43.87;29.47;;;14.20;1.00;;;;;;5008555;28;1141923;-65
2022/10/12 07:56:16;;;;;;;43.03;32.20;;;14.20;1.00;;;;;;5048738;28;20862;-65
2022/10/12 07:58:49;;;;;;;41.90;29.37;;;14.20;1.00;;;;;;5048583;28;20203;-65
2022/10/12 08:01:16;;;;;;;38.27;25.60;;;14.20;1.00;;;;;;5047631;28;20417;-66
2022/10/12 08:03:42;;;;;;;55.77;31.70;;;14.30;1.00;;;;;;5048510;28;20430;-65
2022/10/12 08:06:09;;;;;;;51.93;29.43;;;14.30;1.00;;;;;;5048509;28;20874;-65
2022/10/12 08:08:35;;;;;;;38.20;26.10;;;14.40;1.00;;;;;;5048987;28;20186;-65
2022/10/12 08:11:01;;;;;;;35.03;27.00;;;14.50;1.00;;;;;;5048651;28;20443;-65
2022/10/12 08:13:27;;;;;;;37.77;28.07;;;14.50;1.00;;;;;;5048874;28;20199;-64
2022/10/12 08:15:52;;;;;;;37.23;25.40;;;14.40;1.00;;;;;;5048692;28;20175;-64
2022/10/12 08:18:18;;;;;;;34.97;25.90;;;14.40;1.00;;;;;;5048979;28;20259;-64
2022/10/12 08:20:44;;;;;;;45.43;27.93;;;14.40;1.00;;;;;;5047899;28;20171;-64
2022/10/12 08:23:09;;;;;;;42.80;27.07;;;14.40;1.00;;;;;;5051831;28;20742;-64
2022/10/12 08:25:36;;;;;;;33.80;26.47;;;14.40;1.00;;;;;;5052585;28;20225;-64
2022/10/12 08:28:03;;;;;;;34.20;28.03;;;14.40;1.00;;;;;;5052363;28;20198;-63
2022/10/12 08:30:29;;;;;;;41.60;30.10;;;14.40;1.00;;;;;;5051080;28;20409;-64
2022/10/12 08:32:54;;;;;;;40.53;27.70;;;14.50;1.00;;;;;;5052067;28;20432;-65
2022/10/12 08:35:20;;;;;;;39.40;28.20;;;14.50;1.00;;;;;;5051817;28;20320;-65
2022/10/12 08:37:46;;;;;;;34.90;28.17;;;14.50;1.00;;;;;;5052041;28;20211;-64
2022/10/12 08:40:23;;;;;;;48.30;30.53;;;14.40;1.00;;;;;;5051679;28;20229;-65
2022/10/12 08:43:04;;;;;;;37.30;27.67;;;14.50;1.00;;;;;;5051694;28;20272;-64
2022/10/12 08:45:49;;;;;;;37.50;28.70;;;14.50;1.00;;;;;;5051597;28;20401;-65
2022/10/12 08:48:20;;;;;;;44.10;30.77;;;14.60;1.00;;;;;;5052091;28;20512;-65
2022/10/12 08:51:09;;;;;;;51.70;32.63;;;14.70;1.00;;;;;;5049934;28;20417;-65
2022/10/12 08:53:51;;;;;;;39.33;30.23;;;14.70;1.00;;;;;;5051799;28;20460;-65
2022/10/12 08:56:18;;;;;;;51.80;30.33;;;14.70;1.00;;;;;;5051421;28;20425;-65
2022/10/12 08:58:45;;;;;;;47.77;33.70;;;14.70;1.00;;;;;;5051080;28;20471;-65
2022/10/12 09:01:36;;;;;;;38.20;27.23;;;14.60;1.00;;;;;;5050592;28;20428;-65
2022/10/12 09:04:19;;;;;;;92.87;33.90;;;14.50;1.00;;;;;;5051187;28;20433;-65
2022/10/12 09:06:47;;;;;;;37.77;26.43;;;14.50;1.00;;;;;;5051774;28;20397;-65
2022/10/12 09:09:50;;;;;;;42.83;25.00;;;14.50;1.00;;;;;;5051723;28;20828;-65
2022/10/12 09:12:15;;;;;;;32.43;22.47;;;14.50;1.00;;;;;;5050591;28;20550;-65
2022/10/12 09:14:42;;;;;;;29.20;23.00;;;14.50;1.00;;;;;;5051210;28;20793;-65
2022/10/12 09:17:42;;;;;;;42.53;21.70;;;14.50;1.00;;;;;;5051367;28;20675;-66
2022/10/12 09:20:25;;;;;;;34.40;23.77;;;14.50;1.00;;;;;;5050282;28;20772;-66
2022/10/12 09:22:55;;;;;;;33.57;22.40;;;14.50;1.00;;;;;;5050862;28;20465;-65
2022/10/12 09:25:26;;;;;;;40.00;23.20;;;14.40;1.00;;;;;;5050708;28;20405;-65
2022/10/12 09:27:53;;;;;;;55.97;27.00;;;14.50;1.00;;;;;;5051616;28;20871;-66
2022/10/12 09:30:19;;;;;;;33.27;22.93;;;14.50;1.00;;;;;;5050470;28;20421;-66
2022/10/12 09:33:11;;;;;;;34.07;23.93;;;14.50;1.00;;;;;;5047775;28;20429;-65
2022/10/12 09:35:38;;;;;;;31.40;22.27;;;14.50;1.00;;;;;;5044327;28;20936;-65
2022/10/12 09:38:05;;;;;;;31.23;21.07;;;14.50;1.00;;;;;;5049495;28;20507;-68
2022/10/12 09:40:32;;;;;;;40.77;21.83;;;14.60;1.00;;;;;;5048853;28;20813;-66
2022/10/12 09:43:02;;;;;;;31.10;22.60;;;14.70;1.00;;;;;;5049519;28;20528;-66
2022/10/12 09:45:31;;;;;;;33.27;22.73;;;14.60;1.00;;;;;;5049432;28;20429;-66
2022/10/12 09:48:22;;;;;;;59.27;24.90;;;14.50;1.00;;;;;;5050463;28;20413;-66
2022/10/12 09:50:56;;;;;;;29.57;19.87;;;14.50;1.00;;;;;;5038175;28;20421;-64
2022/10/12 09:53:28;;;;;;;29.60;19.43;;;14.50;1.00;;;;;;5055021;28;20476;-65
2022/10/12 09:56:00;;;;;;;28.33;21.00;;;14.60;1.00;;;;;;5061348;28;20463;-65
2022/10/12 09:58:27;;;;;;;32.60;21.60;;;14.60;1.00;;;;;;5059643;28;20489;-66
2022/10/12 10:01:12;;;;;;;27.13;18.83;;;14.80;1.00;;;;;;5058699;28;20504;-65
2022/10/12 10:03:38;;;;;;;31.53;20.73;;;15.00;1.00;;;;;;5060036;28;20797;-65
2022/10/12 10:06:04;;;;;;;27.13;17.70;;;15.20;1.00;;;;;;5059565;28;20886;-65
2022/10/12 10:08:39;;;;;;;35.90;19.73;;;15.20;99.90;;;;;;5060028;28;20234;-65
2022/10/12 10:11:12;;;;;;;23.10;18.17;;;15.30;99.90;;;;;;5059525;28;20404;-65
2022/10/12 10:13:43;;;;;;;28.27;19.07;;;15.50;99.90;;;;;;5059154;28;20428;-65
2022/10/12 10:16:10;;;;;;;31.57;20.90;;;15.60;99.90;;;;;;5058600;28;20417;-65
2022/10/12 10:18:42;;;;;;;26.93;18.60;;;15.40;99.90;;;;;;5060463;28;20485;-65
2022/10/12 10:21:15;;;;;;;25.90;18.33;;;15.30;99.90;;;;;;5059912;28;20413;-65
2022/10/12 10:23:57;;;;;;;26.33;18.47;;;15.40;99.90;;;;;;5057169;28;20425;-65
2022/10/12 10:26:24;;;;;;;24.07;18.00;;;15.50;99.90;;;;;;5052737;28;20779;-65
2022/10/12 10:28:56;;;;;;;49.70;20.67;;;15.60;11.70;;;;;;5050984;28;20421;-66
2022/10/12 10:31:26;;;;;;;29.03;18.00;;;15.60;1.00;;;;;;5050277;28;20751;-65
2022/10/12 10:34:15;;;;;;;24.13;18.30;;;15.60;1.00;;;;;;5050903;28;20460;-65
2022/10/12 10:36:50;;;;;;;22.53;16.10;;;15.60;1.00;;;;;;5037961;28;20451;-65
2022/10/12 10:39:27;;;;;;;41.00;17.03;;;15.60;1.00;;;;;;5050750;28;20401;-65
2022/10/12 10:41:54;;;;;;;22.50;17.30;;;15.60;1.00;;;;;;5050107;28;20393;-65
2022/10/12 10:44:29;;;;;;;25.33;19.67;;;15.60;1.00;;;;;;5049922;28;20429;-65
2022/10/12 10:47:08;;;;;;;28.10;20.73;;;15.60;1.00;;;;;;5051267;28;20431;-64
2022/10/12 10:49:46;;;;;;;26.60;21.70;;;15.50;1.00;;;;;;5051486;28;20476;-65
2022/10/12 10:52:26;;;;;;;36.20;20.33;;;15.50;96.60;;;;;;5050500;28;20409;-65
2022/10/12 10:55:10;;;;;;;45.23;21.10;;;15.70;15.20;;;;;;5050402;28;20421;-65
2022/10/12 10:57:44;;;;;;;69.27;21.17;;;15.80;1.00;;;;;;5049042;28;20460;-65
2022/10/12 11:00:20;;;;;;;39.60;17.70;;;15.80;1.00;;;;;;5048613;28;20471;-65
2022/10/12 11:02:55;;;;;;;30.43;17.20;;;15.70;1.00;;;;;;5046794;28;20535;-65
2022/10/12 11:05:28;;;;;;;30.63;16.43;;;15.60;48.70;;;;;;5040574;28;20393;-65
2022/10/12 11:07:54;;;;;;;49.53;18.43;;;15.70;99.90;;;;;;5049612;28;20389;-65
2022/10/12 11:10:29;;;;;;;25.03;14.57;;;15.80;77.40;;;;;;5048930;28;20429;-65
2022/10/12 11:13:18;;;;;;;27.07;16.17;;;15.80;1.00;;;;;;5037989;28;20981;-65
2022/10/12 11:15:49;;;;;;;33.07;15.57;;;15.70;1.00;;;;;;5017528;28;20410;-65
2022/10/12 11:18:32;;;;;;;33.03;16.23;;;15.70;1.00;;;;;;5043972;28;20508;-65
2022/10/12 11:21:03;;;;;;;28.37;15.67;;;15.80;99.90;;;;;;5046538;28;20871;-69
2022/10/12 11:24:04;;;;;;;26.07;15.90;;;15.90;99.90;;;;;;5034618;28;20504;-66
2022/10/12 11:26:54;;;;;;;22.63;15.40;;;15.90;1.00;;;;;;5024271;28;20449;-66
2022/10/12 11:29:20;;;;;;;31.33;15.97;;;16.00;1.00;;;;;;5048400;28;20829;-66
2022/10/12 11:31:53;;;;;;;24.43;15.10;;;16.00;99.90;;;;;;5039157;28;20422;-66
2022/10/12 11:34:21;;;;;;;46.70;16.70;;;16.10;99.90;;;;;;5038362;28;20739;-66
2022/10/12 11:36:50;;;;;;;27.10;17.50;;;16.10;1.00;;;;;;5043688;28;20487;-66
2022/10/12 11:39:25;;;;;;;43.20;16.90;;;16.20;99.90;;;;;;5044353;28;20774;-65
2022/10/12 11:41:54;;;;;;;45.13;16.40;;;16.20;1.00;;;;;;5034796;28;20425;-66
2022/10/12 11:44:32;;;;;;;42.43;18.20;;;16.20;1.00;;;;;;5028128;28;20516;-66
2022/10/12 11:47:16;;;;;;;29.07;16.13;;;16.20;1.00;;;;;;5028130;28;20455;-65
2022/10/12 11:50:00;;;;;;;21.67;14.10;;;16.10;1.00;;;;;;5031601;28;21026;-65
2022/10/12 11:52:55;;;;;;;24.97;16.03;;;16.10;99.90;;;;;;5031192;28;20505;-66
2022/10/12 11:55:26;;;;;;;20.70;15.30;;;16.00;1.00;;;;;;5023173;28;20859;-65
2022/10/12 11:57:55;;;;;;;25.97;17.03;;;16.00;1.00;;;;;;5031442;28;20972;-65
2022/10/12 12:00:54;;;;;;;24.00;15.40;;;16.00;1.00;;;;;;5037105;28;20432;-66
2022/10/12 12:04:07;;;;;;;28.70;16.27;;;16.10;1.00;;;;;;5039429;28;20453;-67
2022/10/12 12:06:33;;;;;;;81.37;22.27;;;16.30;1.00;;;;;;5001089;28;20442;-65
2022/10/12 12:08:58;;;;;;;106.70;24.30;;;16.40;99.90;;;;;;5037947;28;20480;-66
2022/10/12 12:11:27;;;;;;;49.33;20.80;;;16.60;99.90;;;;;;5031731;28;20258;-66
2022/10/12 12:14:24;;;;;;;31.20;19.93;;;16.70;1.00;;;;;;5051051;28;20199;-65
2022/10/12 12:17:08;;;;;;;32.20;19.60;;;16.80;99.90;;;;;;5037849;28;20422;-65
2022/10/12 12:19:57;;;;;;;22.47;16.00;;;16.90;99.90;;;;;;5040913;28;20414;-65
2022/10/12 12:22:22;;;;;;;23.97;16.50;;;16.90;99.90;;;;;;5031363;28;20448;-65
2022/10/12 12:25:04;;;;;;;21.80;16.57;;;16.80;99.90;;;;;;5041343;28;20718;-65
2022/10/12 12:27:35;;;;;;;19.50;15.27;;;16.60;99.90;;;;;;5032357;28;20179;-66
2022/10/12 12:30:18;;;;;;;20.10;14.73;;;16.50;99.90;;;;;;5041859;28;20947;-65
2022/10/12 12:32:54;;;;;;;22.57;16.17;;;16.40;1.00;;;;;;5031827;28;20897;-65
2022/10/12 12:35:34;;;;;;;21.43;15.90;;;16.50;1.00;;;;;;5032109;28;20956;-65
2022/10/12 12:38:25;;;;;;;22.30;16.83;;;16.30;1.00;;;;;;5031914;28;20820;-65
2022/10/12 12:41:00;;;;;;;23.20;16.53;;;16.30;1.00;;;;;;5019151;28;20415;-65
2022/10/12 12:43:28;;;;;;;25.67;16.10;;;16.40;1.00;;;;;;5032845;28;20441;-65
2022/10/12 12:45:58;;;;;;;21.13;16.20;;;16.40;1.00;;;;;;5031215;28;20437;-65
2022/10/12 12:48:42;;;;;;;24.30;16.70;;;16.50;1.00;;;;;;5031538;28;20559;-65
2022/10/12 12:51:34;;;;;;;21.40;14.93;;;16.50;99.90;;;;;;5030891;28;20511;-65
2022/10/12 12:54:03;;;;;;;23.97;17.87;;;16.40;99.90;;;;;;5020539;28;20574;-65
2022/10/12 12:56:34;;;;;;;19.63;15.40;;;16.30;99.90;;;;;;5031442;28;20405;-65